sensor_id;sensor_type;location;lat;lon;timestamp;pressure;altitude;pressure_sealevel;temperature;humidity
42859;BME280;28505;56.970;40.998;2023-03-20T00:00:50;100611.41;;;-7.10;100.00
42859;BME280;28505;56.970;40.998;2023-03-20T00:06:18;100579.78;;;-7.33;100.00
42859;BME280;28505;56.970;40.998;2023-03-20T00:11:52;100594.03;;;-7.36;100.00
42859;BME280;28505;56.970;40.998;2023-03-20T00:17:19;100612.56;;;-7.29;100.00
42859;BME280;28505;56.970;40.998;2023-03-20T00:22:42;100594.84;;;-7.27;100.00
42859;BME280;28505;56.970;40.998;2023-03-20T00:28:40;100579.47;;;-7.38;100.00
42859;BME280;28505;56.970;40.998;2023-03-20T00:34:11;100605.00;;;-7.32;100.00
42859;BME280;28505;56.970;40.998;2023-03-20T00:39:34;100576.84;;;-7.38;100.00
42859;BME280;28505;56.970;40.998;2023-03-20T00:44:57;100592.69;;;-7.48;100.00
42859;BME280;28505;56.970;40.998;2023-03-20T00:50:23;100597.47;;;-7.35;100.00
42859;BME280;28505;56.970;40.998;2023-03-20T00:55:46;100584.03;;;-7.40;100.00
42859;BME280;28505;56.970;40.998;2023-03-20T01:01:08;100571.44;;;-7.45;100.00
42859;BME280;28505;56.970;40.998;2023-03-20T01:06:31;100563.06;;;-7.48;100.00
42859;BME280;28505;56.970;40.998;2023-03-20T01:11:53;100557.16;;;-7.50;100.00
42859;BME280;28505;56.970;40.998;2023-03-20T01:17:20;100576.50;;;-7.43;100.00
42859;BME280;28505;56.970;40.998;2023-03-20T01:22:43;100566.47;;;-7.56;100.00
42859;BME280;28505;56.970;40.998;2023-03-20T01:28:21;100558.66;;;-7.48;100.00
42859;BME280;28505;56.970;40.998;2023-03-20T01:33:44;100547.34;;;-7.57;100.00
42859;BME280;28505;56.970;40.998;2023-03-20T01:39:09;100546.03;;;-7.53;100.00
42859;BME280;28505;56.970;40.998;2023-03-20T01:44:33;100561.94;;;-7.30;100.00
42859;BME280;28505;56.970;40.998;2023-03-20T01:55:52;100568.28;;;-7.65;100.00
42859;BME280;28505;56.970;40.998;2023-03-20T02:01:19;100561.34;;;-7.82;100.00
42859;BME280;28505;56.970;40.998;2023-03-20T02:06:42;100546.78;;;-7.85;100.00
42859;BME280;28505;56.970;40.998;2023-03-20T02:12:11;100534.66;;;-7.86;100.00
42859;BME280;28505;56.970;40.998;2023-03-20T02:17:35;100540.75;;;-7.77;100.00
42859;BME280;28505;56.970;40.998;2023-03-20T02:23:23;100560.56;;;-7.66;100.00
42859;BME280;28505;56.970;40.998;2023-03-20T02:29:30;100537.78;;;-7.82;100.00
42859;BME280;28505;56.970;40.998;2023-03-20T02:46:35;100534.97;;;-7.97;100.00
42859;BME280;28505;56.970;40.998;2023-03-20T02:57:46;100533.91;;;-8.20;100.00
42859;BME280;28505;56.970;40.998;2023-03-20T03:09:16;100516.34;;;-8.36;100.00
42859;BME280;28505;56.970;40.998;2023-03-20T03:14:59;100490.78;;;-8.51;100.00
42859;BME280;28505;56.970;40.998;2023-03-20T03:20:34;100525.34;;;-8.31;100.00
42859;BME280;28505;56.970;40.998;2023-03-20T03:25:59;100480.94;;;-8.57;100.00
42859;BME280;28505;56.970;40.998;2023-03-20T03:31:24;100516.56;;;-8.21;100.00
42859;BME280;28505;56.970;40.998;2023-03-20T03:37:08;100467.97;;;-8.32;100.00
42859;BME280;28505;56.970;40.998;2023-03-20T03:42:40;100474.75;;;-8.13;100.00
42859;BME280;28505;56.970;40.998;2023-03-20T03:48:34;100494.25;;;-7.91;100.00
42859;BME280;28505;56.970;40.998;2023-03-20T03:54:06;100440.38;;;-8.18;100.00
42859;BME280;28505;56.970;40.998;2023-03-20T03:59:40;100454.03;;;-7.82;100.00
42859;BME280;28505;56.970;40.998;2023-03-20T04:05:05;100488.28;;;-7.18;100.00
42859;BME280;28505;56.970;40.998;2023-03-20T04:10:31;100464.50;;;-7.00;100.00
42859;BME280;28505;56.970;40.998;2023-03-20T04:16:11;100439.88;;;-6.67;100.00
42859;BME280;28505;56.970;40.998;2023-03-20T04:21:42;100427.84;;;-6.53;100.00
42859;BME280;28505;56.970;40.998;2023-03-20T04:27:17;100442.75;;;-6.14;100.00
42859;BME280;28505;56.970;40.998;2023-03-20T04:32:53;100426.47;;;-5.86;100.00
42859;BME280;28505;56.970;40.998;2023-03-20T04:39:13;100474.16;;;-5.14;100.00
42859;BME280;28505;56.970;40.998;2023-03-20T04:51:41;100471.28;;;-4.15;100.00
42859;BME280;28505;56.970;40.998;2023-03-20T04:57:06;100435.56;;;-4.03;100.00
42859;BME280;28505;56.970;40.998;2023-03-20T05:02:29;100461.59;;;-3.79;100.00
42859;BME280;28505;56.970;40.998;2023-03-20T05:07:52;100428.91;;;-3.84;100.00
42859;BME280;28505;56.970;40.998;2023-03-20T05:13:24;100454.53;;;-3.50;100.00
42859;BME280;28505;56.970;40.998;2023-03-20T05:19:11;100458.91;;;-3.14;100.00
42859;BME280;28505;56.970;40.998;2023-03-20T05:24:50;100453.69;;;-3.08;100.00
42859;BME280;28505;56.970;40.998;2023-03-20T05:30:39;100466.84;;;-2.86;100.00
42859;BME280;28505;56.970;40.998;2023-03-20T05:36:26;100475.53;;;-2.57;100.00
42859;BME280;28505;56.970;40.998;2023-03-20T05:42:09;100488.47;;;-2.34;100.00
42859;BME280;28505;56.970;40.998;2023-03-20T05:53:31;100478.63;;;-2.13;100.00
42859;BME280;28505;56.970;40.998;2023-03-20T05:59:11;100467.13;;;-1.85;100.00
42859;BME280;28505;56.970;40.998;2023-03-20T06:04:53;100464.75;;;-1.47;100.00
42859;BME280;28505;56.970;40.998;2023-03-20T06:10:20;100473.53;;;-1.00;100.00
42859;BME280;28505;56.970;40.998;2023-03-20T06:15:44;100465.53;;;-0.73;100.00
42859;BME280;28505;56.970;40.998;2023-03-20T06:21:10;100470.38;;;-0.50;100.00
42859;BME280;28505;56.970;40.998;2023-03-20T06:26:33;100462.63;;;-0.38;100.00
42859;BME280;28505;56.970;40.998;2023-03-20T06:32:01;100460.38;;;-0.35;100.00
42859;BME280;28505;56.970;40.998;2023-03-20T06:37:25;100461.53;;;-0.24;100.00
42859;BME280;28505;56.970;40.998;2023-03-20T06:42:55;100456.19;;;-0.11;100.00
42859;BME280;28505;56.970;40.998;2023-03-20T06:48:24;100425.44;;;-0.18;100.00
42859;BME280;28505;56.970;40.998;2023-03-20T06:53:50;100443.84;;;0.15;100.00
42859;BME280;28505;56.970;40.998;2023-03-20T06:59:15;100445.22;;;0.24;100.00
42859;BME280;28505;56.970;40.998;2023-03-20T07:04:38;100438.88;;;0.25;100.00
42859;BME280;28505;56.970;40.998;2023-03-20T07:10:02;100435.19;;;0.26;100.00
42859;BME280;28505;56.970;40.998;2023-03-20T07:15:25;100427.59;;;0.36;100.00
42859;BME280;28505;56.970;40.998;2023-03-20T07:20:50;100424.69;;;0.44;100.00
42859;BME280;28505;56.970;40.998;2023-03-20T07:26:13;100420.34;;;1.00;100.00
42859;BME280;28505;56.970;40.998;2023-03-20T07:31:36;100409.97;;;1.35;100.00
42859;BME280;28505;56.970;40.998;2023-03-20T07:37:05;100370.94;;;1.36;100.00
42859;BME280;28505;56.970;40.998;2023-03-20T07:42:30;100355.63;;;1.68;100.00
42859;BME280;28505;56.970;40.998;2023-03-20T07:48:10;100406.94;;;2.29;100.00
42859;BME280;28505;56.970;40.998;2023-03-20T07:53:32;100389.88;;;2.60;100.00
42859;BME280;28505;56.970;40.998;2023-03-20T07:58:54;100390.69;;;2.72;100.00
42859;BME280;28505;56.970;40.998;2023-03-20T08:04:17;100378.66;;;2.81;100.00
42859;BME280;28505;56.970;40.998;2023-03-20T08:09:43;100359.06;;;2.88;100.00
42859;BME280;28505;56.970;40.998;2023-03-20T08:15:05;100354.94;;;2.92;100.00
42859;BME280;28505;56.970;40.998;2023-03-20T08:20:28;100367.06;;;2.99;100.00
42859;BME280;28505;56.970;40.998;2023-03-20T08:25:51;100366.13;;;3.17;100.00
42859;BME280;28505;56.970;40.998;2023-03-20T08:31:15;100368.28;;;3.44;100.00
42859;BME280;28505;56.970;40.998;2023-03-20T08:36:38;100366.38;;;3.56;100.00
42859;BME280;28505;56.970;40.998;2023-03-20T08:42:01;100358.59;;;3.66;100.00
42859;BME280;28505;56.970;40.998;2023-03-20T08:47:23;100338.78;;;3.62;100.00
42859;BME280;28505;56.970;40.998;2023-03-20T08:52:46;100348.00;;;3.71;100.00
42859;BME280;28505;56.970;40.998;2023-03-20T08:58:13;100299.41;;;3.52;100.00
42859;BME280;28505;56.970;40.998;2023-03-20T09:03:39;100337.53;;;3.82;100.00
42859;BME280;28505;56.970;40.998;2023-03-20T09:09:01;100292.56;;;3.57;100.00
42859;BME280;28505;56.970;40.998;2023-03-20T09:14:26;100322.00;;;3.79;100.00
42859;BME280;28505;56.970;40.998;2023-03-20T09:19:49;100342.41;;;4.02;100.00
42859;BME280;28505;56.970;40.998;2023-03-20T09:25:36;100347.78;;;4.18;98.42
42859;BME280;28505;56.970;40.998;2023-03-20T09:31:02;100305.88;;;4.02;95.87
42859;BME280;28505;56.970;40.998;2023-03-20T09:36:47;100271.94;;;3.97;91.47
42859;BME280;28505;56.970;40.998;2023-03-20T09:54:03;100313.31;;;4.67;87.91
42859;BME280;28505;56.970;40.998;2023-03-20T09:59:28;100313.66;;;4.71;86.99
42859;BME280;28505;56.970;40.998;2023-03-20T10:04:54;100308.53;;;4.69;84.65
42859;BME280;28505;56.970;40.998;2023-03-20T10:10:16;100262.84;;;4.49;83.81
42859;BME280;28505;56.970;40.998;2023-03-20T10:21:30;100294.59;;;4.67;77.76
42859;BME280;28505;56.970;40.998;2023-03-20T10:27:03;100289.88;;;4.53;75.44
42859;BME280;28505;56.970;40.998;2023-03-20T10:44:30;100278.47;;;4.40;74.52
42859;BME280;28505;56.970;40.998;2023-03-20T10:49:57;100272.59;;;4.38;74.92
42859;BME280;28505;56.970;40.998;2023-03-20T10:55:26;100252.06;;;4.22;72.08
42859;BME280;28505;56.970;40.998;2023-03-20T11:00:50;100249.72;;;4.26;72.86
42859;BME280;28505;56.970;40.998;2023-03-20T11:06:21;100237.34;;;4.19;72.71
42859;BME280;28505;56.970;40.998;2023-03-20T11:11:50;100254.63;;;4.34;72.69
42859;BME280;28505;56.970;40.998;2023-03-20T11:17:15;100216.31;;;4.23;72.20
42859;BME280;28505;56.970;40.998;2023-03-20T11:22:39;100236.03;;;4.39;72.45
42859;BME280;28505;56.970;40.998;2023-03-20T11:28:50;100238.25;;;4.47;70.45
42859;BME280;28505;56.970;40.998;2023-03-20T11:39:36;100203.38;;;4.32;69.92
42859;BME280;28505;56.970;40.998;2023-03-20T11:45:14;100227.09;;;4.50;67.93
42859;BME280;28505;56.970;40.998;2023-03-20T11:50:43;100218.00;;;4.51;67.33
42859;BME280;28505;56.970;40.998;2023-03-20T11:56:25;100206.84;;;4.54;68.01
42859;BME280;28505;56.970;40.998;2023-03-20T12:01:51;100199.41;;;4.56;68.98
42859;BME280;28505;56.970;40.998;2023-03-20T12:07:32;100194.38;;;4.60;70.77
42859;BME280;28505;56.970;40.998;2023-03-20T12:13:03;100174.25;;;4.52;70.77
42859;BME280;28505;56.970;40.998;2023-03-20T12:18:39;100173.81;;;4.60;70.96
42859;BME280;28505;56.970;40.998;2023-03-20T12:29:53;100155.50;;;4.69;71.75
42859;BME280;28505;56.970;40.998;2023-03-20T12:35:33;100156.38;;;4.75;73.42
42859;BME280;28505;56.970;40.998;2023-03-20T12:41:29;100147.56;;;4.74;73.52
42859;BME280;28505;56.970;40.998;2023-03-20T13:10:15;100118.41;;;4.73;74.50
42859;BME280;28505;56.970;40.998;2023-03-20T13:21:23;100085.97;;;4.59;74.48
42859;BME280;28505;56.970;40.998;2023-03-20T13:27:00;100089.50;;;4.64;74.19
42859;BME280;28505;56.970;40.998;2023-03-20T13:38:01;100053.22;;;4.41;73.69
42859;BME280;28505;56.970;40.998;2023-03-20T13:43:35;100074.00;;;4.61;74.09
42859;BME280;28505;56.970;40.998;2023-03-20T13:49:04;100058.03;;;4.44;73.86
42859;BME280;28505;56.970;40.998;2023-03-20T14:07:28;100086.97;;;4.53;72.36
42859;BME280;28505;56.970;40.998;2023-03-20T14:12:58;100071.56;;;4.38;71.88
42859;BME280;28505;56.970;40.998;2023-03-20T14:18:24;100051.34;;;4.20;71.92
42859;BME280;28505;56.970;40.998;2023-03-20T14:24:03;100043.75;;;4.12;72.53
42859;BME280;28505;56.970;40.998;2023-03-20T14:29:32;100027.81;;;3.95;72.88
42859;BME280;28505;56.970;40.998;2023-03-20T14:35:25;100070.63;;;4.05;72.77
42859;BME280;28505;56.970;40.998;2023-03-20T14:40:58;100054.63;;;3.83;73.79
42859;BME280;28505;56.970;40.998;2023-03-20T14:52:24;100059.81;;;3.56;73.96
42859;BME280;28505;56.970;40.998;2023-03-20T14:57:48;100047.09;;;3.41;74.19
42859;BME280;28505;56.970;40.998;2023-03-20T15:03:17;100037.66;;;3.34;73.90
42859;BME280;28505;56.970;40.998;2023-03-20T15:09:17;100053.13;;;3.37;72.14
42859;BME280;28505;56.970;40.998;2023-03-20T15:14:45;100050.88;;;3.28;72.69
42859;BME280;28505;56.970;40.998;2023-03-20T15:25:39;100045.94;;;3.03;75.21
42859;BME280;28505;56.970;40.998;2023-03-20T15:31:04;100039.69;;;2.81;75.99
42859;BME280;28505;56.970;40.998;2023-03-20T15:36:30;100024.44;;;2.60;77.34
42859;BME280;28505;56.970;40.998;2023-03-20T15:42:01;100038.94;;;2.52;78.77
42859;BME280;28505;56.970;40.998;2023-03-20T15:47:24;100042.00;;;2.32;80.36
42859;BME280;28505;56.970;40.998;2023-03-20T15:52:47;100030.53;;;2.03;82.39
42859;BME280;28505;56.970;40.998;2023-03-20T15:58:19;99984.28;;;1.52;84.85
42859;BME280;28505;56.970;40.998;2023-03-20T16:03:42;99981.63;;;1.40;86.25
42859;BME280;28505;56.970;40.998;2023-03-20T16:09:07;100012.78;;;1.56;87.41
42859;BME280;28505;56.970;40.998;2023-03-20T16:14:32;99983.13;;;1.24;88.26
42859;BME280;28505;56.970;40.998;2023-03-20T16:20:00;99969.50;;;1.09;89.35
42859;BME280;28505;56.970;40.998;2023-03-20T16:25:24;99991.09;;;1.12;90.10
42859;BME280;28505;56.970;40.998;2023-03-20T16:30:50;99997.78;;;1.03;91.00
42859;BME280;28505;56.970;40.998;2023-03-20T16:36:27;100014.75;;;1.14;92.30
42859;BME280;28505;56.970;40.998;2023-03-20T16:42:19;99969.50;;;0.85;94.02
42859;BME280;28505;56.970;40.998;2023-03-20T16:47:49;99973.41;;;0.94;93.22
42859;BME280;28505;56.970;40.998;2023-03-20T16:53:17;99967.66;;;0.98;93.01
42859;BME280;28505;56.970;40.998;2023-03-20T16:58:43;99966.84;;;0.85;94.68
42859;BME280;28505;56.970;40.998;2023-03-20T17:04:19;99985.53;;;0.90;95.81
42859;BME280;28505;56.970;40.998;2023-03-20T17:09:58;99993.16;;;0.87;96.80
42859;BME280;28505;56.970;40.998;2023-03-20T17:15:23;99967.16;;;0.77;96.87
42859;BME280;28505;56.970;40.998;2023-03-20T17:20:46;99957.91;;;0.68;98.48
42859;BME280;28505;56.970;40.998;2023-03-20T17:26:11;99945.09;;;0.65;99.71
42859;BME280;28505;56.970;40.998;2023-03-20T17:31:34;99942.56;;;0.58;99.54
42859;BME280;28505;56.970;40.998;2023-03-20T17:43:08;99993.94;;;0.87;100.00
42859;BME280;28505;56.970;40.998;2023-03-20T17:48:38;99996.38;;;0.89;100.00
42859;BME280;28505;56.970;40.998;2023-03-20T17:54:04;99971.31;;;0.73;100.00
42859;BME280;28505;56.970;40.998;2023-03-20T17:59:30;99974.31;;;0.77;100.00
42859;BME280;28505;56.970;40.998;2023-03-20T18:05:00;99998.69;;;0.85;100.00
42859;BME280;28505;56.970;40.998;2023-03-20T18:10:28;99984.00;;;0.71;100.00
42859;BME280;28505;56.970;40.998;2023-03-20T18:15:56;99959.28;;;0.59;100.00
42859;BME280;28505;56.970;40.998;2023-03-20T18:21:20;99949.81;;;0.51;100.00
42859;BME280;28505;56.970;40.998;2023-03-20T18:26:44;99963.56;;;0.72;100.00
42859;BME280;28505;56.970;40.998;2023-03-20T18:32:11;99951.47;;;0.87;100.00
42859;BME280;28505;56.970;40.998;2023-03-20T18:37:37;99922.19;;;0.82;100.00
42859;BME280;28505;56.970;40.998;2023-03-20T18:43:03;99947.34;;;1.03;100.00
42859;BME280;28505;56.970;40.998;2023-03-20T18:48:40;99940.97;;;1.04;100.00
42859;BME280;28505;56.970;40.998;2023-03-20T18:54:05;99932.47;;;1.02;100.00
42859;BME280;28505;56.970;40.998;2023-03-20T18:59:40;99943.31;;;1.12;100.00
42859;BME280;28505;56.970;40.998;2023-03-20T19:05:04;99941.91;;;1.10;100.00
42859;BME280;28505;56.970;40.998;2023-03-20T19:10:37;99935.09;;;1.14;100.00
42859;BME280;28505;56.970;40.998;2023-03-20T19:16:08;99931.88;;;1.12;100.00
42859;BME280;28505;56.970;40.998;2023-03-20T19:21:38;99912.03;;;1.03;100.00
42859;BME280;28505;56.970;40.998;2023-03-20T19:27:03;99918.81;;;1.10;100.00
42859;BME280;28505;56.970;40.998;2023-03-20T19:32:25;99924.00;;;1.17;100.00
42859;BME280;28505;56.970;40.998;2023-03-20T19:37:49;99917.69;;;1.18;100.00
42859;BME280;28505;56.970;40.998;2023-03-20T19:43:13;99924.00;;;1.17;100.00
42859;BME280;28505;56.970;40.998;2023-03-20T19:48:44;99886.75;;;1.00;100.00
42859;BME280;28505;56.970;40.998;2023-03-20T19:54:12;99908.09;;;1.17;100.00
42859;BME280;28505;56.970;40.998;2023-03-20T19:59:38;99887.44;;;1.07;100.00
42859;BME280;28505;56.970;40.998;2023-03-20T20:05:05;99899.56;;;1.15;100.00
42859;BME280;28505;56.970;40.998;2023-03-20T20:10:32;99873.59;;;1.05;100.00
42859;BME280;28505;56.970;40.998;2023-03-20T20:16:00;99890.22;;;1.12;100.00
42859;BME280;28505;56.970;40.998;2023-03-20T20:21:23;99869.22;;;0.99;100.00
42859;BME280;28505;56.970;40.998;2023-03-20T20:27:08;99872.44;;;1.01;100.00
42859;BME280;28505;56.970;40.998;2023-03-20T20:32:40;99884.31;;;1.10;100.00
42859;BME280;28505;56.970;40.998;2023-03-20T20:38:04;99869.91;;;1.06;100.00
42859;BME280;28505;56.970;40.998;2023-03-20T20:43:51;99855.81;;;0.94;100.00
42859;BME280;28505;56.970;40.998;2023-03-20T20:49:34;99858.81;;;0.98;100.00
42859;BME280;28505;56.970;40.998;2023-03-20T20:54:56;99862.06;;;1.00;100.00
42859;BME280;28505;56.970;40.998;2023-03-20T21:00:39;99813.72;;;0.74;100.00
42859;BME280;28505;56.970;40.998;2023-03-20T21:06:14;99844.41;;;0.93;100.00
42859;BME280;28505;56.970;40.998;2023-03-20T21:11:37;99843.25;;;0.89;100.00
42859;BME280;28505;56.970;40.998;2023-03-20T21:16:59;99831.50;;;0.85;100.00
42859;BME280;28505;56.970;40.998;2023-03-20T21:22:22;99830.19;;;0.88;100.00
42859;BME280;28505;56.970;40.998;2023-03-20T21:27:44;99815.91;;;0.77;100.00
42859;BME280;28505;56.970;40.998;2023-03-20T21:33:06;99827.22;;;0.84;100.00
42859;BME280;28505;56.970;40.998;2023-03-20T21:38:29;99807.63;;;0.74;100.00
42859;BME280;28505;56.970;40.998;2023-03-20T21:44:11;99804.03;;;0.68;100.00
42859;BME280;28505;56.970;40.998;2023-03-20T21:49:38;99758.03;;;0.51;100.00
42859;BME280;28505;56.970;40.998;2023-03-20T21:55:22;99779.59;;;0.66;100.00
42859;BME280;28505;56.970;40.998;2023-03-20T22:01:05;99772.66;;;0.65;100.00
42859;BME280;28505;56.970;40.998;2023-03-20T22:06:50;99746.16;;;0.53;100.00
42859;BME280;28505;56.970;40.998;2023-03-20T22:12:33;99778.78;;;0.65;100.00
42859;BME280;28505;56.970;40.998;2023-03-20T22:18:20;99759.19;;;0.55;100.00
42859;BME280;28505;56.970;40.998;2023-03-20T22:24:03;99761.84;;;0.55;100.00
42859;BME280;28505;56.970;40.998;2023-03-20T22:29:45;99754.13;;;0.53;100.00
42859;BME280;28505;56.970;40.998;2023-03-20T22:35:28;99753.06;;;0.42;100.00
42859;BME280;28505;56.970;40.998;2023-03-20T22:41:16;99773.25;;;0.55;100.00
42859;BME280;28505;56.970;40.998;2023-03-20T22:47:03;99741.31;;;0.38;100.00
42859;BME280;28505;56.970;40.998;2023-03-20T22:52:27;99741.44;;;0.43;100.00
42859;BME280;28505;56.970;40.998;2023-03-20T22:58:13;99731.97;;;0.47;100.00
42859;BME280;28505;56.970;40.998;2023-03-20T23:03:35;99719.53;;;0.36;100.00
42859;BME280;28505;56.970;40.998;2023-03-20T23:09:02;99707.22;;;0.30;100.00
42859;BME280;28505;56.970;40.998;2023-03-20T23:14:36;99716.44;;;0.39;100.00
42859;BME280;28505;56.970;40.998;2023-03-20T23:20:07;99710.09;;;0.40;100.00
42859;BME280;28505;56.970;40.998;2023-03-20T23:25:38;99706.63;;;0.40;100.00
42859;BME280;28505;56.970;40.998;2023-03-20T23:31:12;99702.34;;;0.39;100.00
42859;BME280;28505;56.970;40.998;2023-03-20T23:36:37;99697.16;;;0.32;100.00
42859;BME280;28505;56.970;40.998;2023-03-20T23:41:59;99698.66;;;0.28;100.00
42859;BME280;28505;56.970;40.998;2023-03-20T23:47:40;99687.97;;;0.23;100.00
42859;BME280;28505;56.970;40.998;2023-03-20T23:53:05;99680.34;;;0.15;100.00
42859;BME280;28505;56.970;40.998;2023-03-20T23:58:40;99680.22;;;0.10;100.00
